Time;durP1;ratioP1;P1;durP2;ratioP2;P2;SDS_P1;SDS_P2;PMS_P1;PMS_P2;Temp;Humidity;BMP_temperature;BMP_pressure;BME280_temperature;BME280_humidity;BME280_pressure;Samples;Min_cycle;Max_cycle;Signal;HPM_P1;HPM_P2
2022/04/06 00:00:10;;;;;;;26.23;12.58;;;;;;;8.14;51.26;100463.63;1729938;82;26019;-60
2022/04/06 00:02:40;;;;;;;36.63;14.50;;;;;;;8.11;51.31;100460.35;1697705;84;25832;-60
2022/04/06 00:05:09;;;;;;;29.50;13.83;;;;;;;8.06;51.16;100466.09;1697566;84;28154;-61
2022/04/06 00:07:39;;;;;;;22.32;12.65;;;;;;;8.00;51.30;100462.59;1697490;84;25962;-61
2022/04/06 00:10:08;;;;;;;31.87;14.60;;;;;;;7.95;51.47;100466.99;1729376;82;25801;-61
2022/04/06 00:12:37;;;;;;;36.05;14.33;;;;;;;7.90;51.43;100465.67;1729874;82;26069;-61
2022/04/06 00:15:08;;;;;;;23.92;13.00;;;;;;;7.87;51.79;100469.92;1730014;82;25733;-61
2022/04/06 00:17:34;;;;;;;19.65;12.73;;;;;;;7.85;51.63;100467.38;1729703;82;28136;-61
2022/04/06 00:20:02;;;;;;;27.30;13.10;;;;;;;7.81;51.75;100470.80;1729369;82;25741;-60
2022/04/06 00:22:30;;;;;;;35.05;14.18;;;;;;;7.80;51.85;100474.92;1697673;83;25802;-61
2022/04/06 00:24:58;;;;;;;25.85;13.72;;;;;;;7.79;51.92;100478.61;1697580;84;26202;-61
2022/04/06 00:27:26;;;;;;;32.55;13.35;;;;;;;7.76;52.04;100487.72;1697404;84;25548;-61
2022/04/06 00:29:53;;;;;;;34.58;13.58;;;;;;;7.69;52.66;100483.84;1697542;84;27520;-61
2022/04/06 00:32:20;;;;;;;31.97;13.45;;;;;;;7.57;53.18;100487.53;1697522;84;25763;-61
2022/04/06 00:37:33;;;;;;;23.50;12.70;;;;;;;7.45;52.78;100479.51;1736477;82;26034;-61
2022/04/06 00:40:00;;;;;;;29.77;13.62;;;;;;;7.47;52.41;100486.06;1734004;82;25650;-61
2022/04/06 00:42:27;;;;;;;34.90;13.70;;;;;;;7.46;52.36;100478.53;1733792;82;27486;-61
2022/04/06 00:44:54;;;;;;;32.17;12.90;;;;;;;7.43;52.30;100487.30;1720176;82;25734;-61
2022/04/06 00:47:21;;;;;;;27.65;12.93;;;;;;;7.42;52.36;100489.61;1695923;84;25812;-61
2022/04/06 00:49:48;;;;;;;28.30;13.00;;;;;;;7.42;52.38;100490.95;1716986;83;28298;-60
2022/04/06 00:52:15;;;;;;;26.27;13.50;;;;;;;7.40;52.74;100484.36;1704150;83;25793;-62
2022/04/06 00:54:42;;;;;;;25.70;13.83;;;;;;;7.35;52.49;100493.25;1733824;82;27469;-60
2022/04/06 00:57:10;;;;;;;24.65;12.10;;;;;;;7.31;52.80;100497.13;1734296;82;25781;-61
2022/04/06 00:59:38;;;;;;;21.00;12.43;;;;;;;7.27;52.69;100489.00;1693227;83;25613;-61
2022/04/06 01:02:05;;;;;;;23.30;12.50;;;;;;;7.26;52.61;100491.31;1702494;84;26717;-61
2022/04/06 01:04:33;;;;;;;29.60;14.00;;;;;;;7.24;52.78;100490.10;1702526;84;25625;-61
2022/04/06 01:07:00;;;;;;;26.87;12.23;;;;;;;7.21;52.58;100495.69;1702098;83;27642;-61
2022/04/06 01:09:29;;;;;;;27.40;12.95;;;;;;;7.15;52.78;100506.38;1702382;83;25515;-60
2022/04/06 01:11:57;;;;;;;20.45;12.03;;;;;;;7.07;52.63;100508.81;1702603;83;25768;-60
2022/04/06 01:14:24;;;;;;;28.25;13.62;;;;;;;7.02;52.73;100506.98;1702375;83;26240;-60
2022/04/06 01:17:01;;;;;;;23.87;12.37;;;;;;;6.97;52.80;100507.34;1702705;84;25727;-60
2022/04/06 01:19:34;;;;;;;26.82;12.47;;;;;;;6.93;52.77;100511.22;1701980;83;28750;-60
2022/04/06 01:22:10;;;;;;;21.73;11.80;;;;;;;6.89;52.97;100509.27;1702749;83;25796;-60
2022/04/06 01:24:38;;;;;;;27.17;12.68;;;;;;;6.85;52.89;100506.48;1702434;84;25748;-60
2022/04/06 01:27:07;;;;;;;35.23;13.72;;;;;;;6.80;53.05;100513.16;1702326;83;26087;-60
2022/04/06 01:29:34;;;;;;;26.05;12.50;;;;;;;6.77;53.17;100507.53;1702404;83;25953;-59
2022/04/06 01:32:12;;;;;;;27.67;12.07;;;;;;;6.73;53.31;100508.26;1702296;83;27456;-60
2022/04/06 01:34:41;;;;;;;26.33;12.33;;;;;;;6.69;53.59;100507.27;1702501;83;25766;-60
2022/04/06 01:37:10;;;;;;;21.15;12.13;;;;;;;6.66;53.54;100509.70;1661023;85;25679;-60
2022/04/06 01:39:40;;;;;;;23.75;13.22;;;;;;;6.63;53.88;100512.63;1702363;84;26087;-59
2022/04/06 01:42:11;;;;;;;30.85;12.95;;;;;;;6.61;53.80;100508.34;1702543;84;25723;-61
2022/04/06 01:44:38;;;;;;;25.30;12.85;;;;;;;6.56;53.97;100500.21;1707868;82;28178;-60
2022/04/06 01:47:08;;;;;;;22.93;13.50;;;;;;;6.52;54.36;100513.42;1721235;82;25725;-60
2022/04/06 01:52:21;;;;;;;24.95;12.63;;;;;;;6.46;54.19;100523.25;1688783;85;26124;-60
2022/04/06 01:55:01;;;;;;;25.40;12.20;;;;;;;6.39;54.42;100524.19;1719238;83;25797;-60
2022/04/06 01:57:31;;;;;;;20.40;11.70;;;;;;;6.36;54.47;100524.44;1687130;85;27454;-60
2022/04/06 01:59:58;;;;;;;23.25;12.95;;;;;;;6.32;54.44;100523.45;1693158;83;25783;-59
2022/04/06 02:02:30;;;;;;;27.22;12.30;;;;;;;6.26;54.26;100525.59;1721178;83;25718;-61
2022/04/06 02:04:59;;;;;;;36.33;12.40;;;;;;;6.20;54.35;100528.73;1720981;83;26049;-61
2022/04/06 02:07:27;;;;;;;25.30;12.13;;;;;;;6.14;54.25;100537.17;1721182;83;25803;-61
2022/04/06 02:09:58;;;;;;;20.17;12.30;;;;;;;6.11;54.21;100536.09;1720921;83;27476;-61
2022/04/06 02:12:25;;;;;;;25.37;12.23;;;;;;;6.09;54.27;100532.67;1720703;83;25764;-61
2022/04/06 02:14:53;;;;;;;25.08;12.07;;;;;;;6.05;54.44;100524.53;1721132;83;25813;-61
2022/04/06 02:17:22;;;;;;;23.92;12.15;;;;;;;6.03;54.51;100533.13;1721037;83;26089;-61
2022/04/06 02:19:49;;;;;;;24.00;11.20;;;;;;;6.00;54.89;100530.20;1721226;83;25722;-60
2022/04/06 02:22:18;;;;;;;37.90;13.38;;;;;;;5.96;54.84;100534.86;1721030;83;27559;-61
2022/04/06 02:24:46;;;;;;;33.40;12.40;;;;;;;5.92;55.13;100544.08;1721163;83;26132;-60
2022/04/06 02:27:13;;;;;;;36.42;13.00;;;;;;;5.87;55.15;100540.03;1721111;83;25857;-61
2022/04/06 02:29:41;;;;;;;24.98;11.80;;;;;;;5.76;55.21;100542.99;1721094;83;26238;-61
2022/04/06 02:32:09;;;;;;;25.65;12.00;;;;;;;5.71;55.33;100545.62;1721418;83;26167;-61
2022/04/06 02:34:37;;;;;;;26.52;12.90;;;;;;;5.70;55.30;100547.45;1720287;83;27470;-61
2022/04/06 02:37:08;;;;;;;30.77;12.73;;;;;;;5.67;55.50;100551.66;1713515;83;25516;-61
2022/04/06 02:39:36;;;;;;;20.43;11.43;;;;;;;5.63;55.69;100554.19;1708175;84;25734;-61
2022/04/06 02:42:04;;;;;;;24.65;10.85;;;;;;;5.58;55.49;100550.52;1708174;84;26248;-60
2022/04/06 02:44:31;;;;;;;24.80;13.75;;;;;;;5.54;55.68;100553.02;1715229;82;26068;-61
2022/04/06 02:47:00;;;;;;;23.22;12.35;;;;;;;5.49;55.72;100552.02;1719214;82;27858;-60
2022/04/06 02:49:29;;;;;;;22.60;13.30;;;;;;;5.45;55.67;100546.53;1700741;83;25775;-61
2022/04/06 02:51:57;;;;;;;28.20;11.90;;;;;;;5.43;55.74;100552.45;1706045;83;25830;-61
2022/04/06 02:54:24;;;;;;;24.87;12.50;;;;;;;5.38;55.77;100551.91;1706144;84;26842;-61
2022/04/06 02:56:51;;;;;;;24.85;12.30;;;;;;;5.35;55.91;100560.14;1706109;83;25958;-61
2022/04/06 02:59:18;;;;;;;24.07;11.95;;;;;;;5.32;55.91;100561.69;1705395;84;27449;-60
2022/04/06 03:01:46;;;;;;;29.82;12.05;;;;;;;5.29;55.89;100556.59;1704808;84;25495;-61
2022/04/06 03:04:13;;;;;;;25.57;12.13;;;;;;;5.27;56.15;100557.16;1705252;83;25495;-61
2022/04/06 03:06:40;;;;;;;27.82;11.05;;;;;;;5.26;56.53;100560.30;1704852;83;26101;-61
2022/04/06 03:09:08;;;;;;;33.95;12.28;;;;;;;5.28;56.87;100565.55;1704854;83;25696;-62
2022/04/06 03:11:37;;;;;;;24.75;11.18;;;;;;;5.29;57.06;100559.25;1704898;84;28254;-61
2022/04/06 03:14:05;;;;;;;29.72;12.25;;;;;;;5.32;57.55;100554.55;1704831;84;27168;-61
2022/04/06 03:16:33;;;;;;;25.97;11.05;;;;;;;5.35;57.53;100556.14;1704873;84;25733;-61
2022/04/06 03:19:00;;;;;;;22.80;11.83;;;;;;;5.37;57.58;100556.03;1705071;83;26090;-61
2022/04/06 03:21:28;;;;;;;32.15;13.38;;;;;;;5.37;57.84;100556.90;1692847;84;25784;-61
2022/04/06 03:23:55;;;;;;;20.25;11.93;;;;;;;5.38;57.66;100563.08;1704697;84;27530;-61
2022/04/06 03:26:22;;;;;;;30.43;14.53;;;;;;;5.38;57.70;100563.08;1692841;84;25847;-61
2022/04/06 03:28:49;;;;;;;29.07;12.55;;;;;;;5.38;57.79;100563.08;1741373;81;25739;-61
2022/04/06 03:31:17;;;;;;;32.38;13.30;;;;;;;5.41;57.75;100562.87;1741774;81;26106;-61
2022/04/06 03:33:44;;;;;;;27.00;12.68;;;;;;;5.42;57.64;100560.58;1704678;84;25721;-60
2022/04/06 03:36:12;;;;;;;37.93;12.63;;;;;;;5.40;57.54;100571.33;1741148;81;27601;-61
2022/04/06 03:38:41;;;;;;;42.70;13.38;;;;;;;5.37;57.25;100566.23;1704538;84;25799;-61
2022/04/06 03:41:10;;;;;;;38.05;13.68;;;;;;;5.35;56.90;100571.28;1704753;83;25637;-61
2022/04/06 03:43:38;;;;;;;29.80;11.50;;;;;;;5.29;57.13;100567.25;1721988;82;26236;-61
2022/04/06 03:46:05;;;;;;;30.60;13.20;;;;;;;5.24;57.18;100572.91;1719030;83;25581;-61
2022/04/06 03:48:35;;;;;;;25.48;12.78;;;;;;;5.23;57.13;100574.33;1698920;83;26142;-61
2022/04/06 03:51:04;;;;;;;18.48;11.80;;;;;;;5.19;56.88;100587.02;1696686;83;25719;-61
2022/04/06 03:53:31;;;;;;;48.90;14.83;;;;;;;5.16;56.99;100585.89;1678693;84;25751;-61
2022/04/06 03:55:58;;;;;;;43.55;17.00;;;;;;;5.12;56.94;100583.92;1710608;83;26933;-61
2022/04/06 03:58:25;;;;;;;42.67;12.28;;;;;;;5.05;56.88;100587.13;1689931;83;25882;-61
2022/04/06 04:00:54;;;;;;;28.47;11.18;;;;;;;4.98;56.82;100586.20;1708318;84;28602;-61
2022/04/06 04:03:24;;;;;;;31.77;12.13;;;;;;;4.91;57.06;100589.41;1684209;84;25650;-60
2022/04/06 04:05:52;;;;;;;41.75;13.10;;;;;;;4.84;57.11;100590.29;1708099;84;25768;-60
2022/04/06 04:08:21;;;;;;;46.65;13.32;;;;;;;4.81;57.17;100592.69;1707359;84;26486;-61
2022/04/06 04:10:49;;;;;;;32.10;13.10;;;;;;;4.80;57.40;100594.10;1708254;84;25810;-61
2022/04/06 04:13:16;;;;;;;34.48;11.97;;;;;;;4.82;57.48;100594.41;1671524;84;27651;-61
2022/04/06 04:15:45;;;;;;;25.88;11.55;;;;;;;4.81;57.71;100591.36;1707110;84;26624;-61
2022/04/06 04:18:13;;;;;;;22.60;10.50;;;;;;;4.82;57.52;100594.86;1707915;84;25762;-61
2022/04/06 04:20:41;;;;;;;36.95;11.75;;;;;;;4.83;57.57;100590.78;1708198;84;26250;-61
2022/04/06 04:23:08;;;;;;;236.40;21.75;;;;;;;4.84;57.49;100600.95;1708166;84;26006;-62
2022/04/06 04:25:35;;;;;;;449.10;37.13;;;;;;;4.83;57.50;100585.91;1708265;84;28343;-61
2022/04/06 04:28:02;;;;;;;36.03;12.53;;;;;;;4.86;57.67;100589.72;1707957;84;25784;-61
2022/04/06 04:30:29;;;;;;;56.92;14.00;;;;;;;4.87;57.78;100586.09;1707954;83;25942;-60
2022/04/06 04:32:56;;;;;;;54.33;14.98;;;;;;;4.90;57.91;100587.20;1708050;84;26091;-61
2022/04/06 04:35:23;;;;;;;33.30;11.60;;;;;;;4.90;58.24;100591.20;1703867;83;25735;-61
2022/04/06 04:37:51;;;;;;;32.50;13.20;;;;;;;4.93;58.33;100591.00;1697007;84;27478;-60
2022/04/06 04:40:20;;;;;;;44.67;13.32;;;;;;;4.95;58.35;100597.09;1705354;83;25820;-61
2022/04/06 04:42:47;;;;;;;38.53;12.70;;;;;;;4.99;58.55;100600.40;1709457;83;25868;-60
2022/04/06 04:45:14;;;;;;;59.08;16.30;;;;;;;5.04;58.47;100602.75;1709875;83;27047;-60
2022/04/06 04:47:40;;;;;;;38.28;13.45;;;;;;;5.08;58.40;100602.90;1709750;83;26164;-60
2022/04/06 04:50:09;;;;;;;32.55;13.75;;;;;;;5.15;58.29;100605.55;1714092;83;27489;-60
2022/04/06 04:52:35;;;;;;;41.73;13.72;;;;;;;5.21;58.17;100609.58;1718226;83;25846;-60
2022/04/06 04:55:03;;;;;;;26.00;13.18;;;;;;;5.25;58.14;100607.09;1718244;82;25803;-60
2022/04/06 04:57:30;;;;;;;33.25;14.70;;;;;;;5.29;58.14;100601.93;1718322;82;26262;-60
2022/04/06 04:59:57;;;;;;;60.70;17.35;;;;;;;5.32;58.14;100602.56;1716624;83;25517;-60
2022/04/06 05:02:24;;;;;;;51.53;16.15;;;;;;;5.39;57.97;100604.80;1716706;83;27433;-60
2022/04/06 05:04:50;;;;;;;55.17;17.15;;;;;;;5.43;58.01;100597.81;1716621;83;25803;-60
2022/04/06 05:07:17;;;;;;;49.93;15.30;;;;;;;5.49;57.87;100602.70;1716930;83;25882;-60
2022/04/06 05:09:43;;;;;;;50.50;16.52;;;;;;;5.57;57.75;100603.52;1716384;83;26127;-60
2022/04/06 05:12:11;;;;;;;42.35;15.05;;;;;;;5.66;57.60;100609.16;1716594;83;25722;-60
2022/04/06 05:14:38;;;;;;;37.53;15.38;;;;;;;5.72;57.55;100602.91;1716519;83;27401;-60
2022/04/06 05:17:05;;;;;;;46.95;15.05;;;;;;;5.81;57.47;100612.06;1716480;83;25958;-60
2022/04/06 05:19:32;;;;;;;57.35;16.65;;;;;;;5.90;57.44;100611.41;1716550;83;25708;-60
2022/04/06 05:21:59;;;;;;;45.28;15.40;;;;;;;5.99;57.33;100605.03;1716845;83;26086;-60
2022/04/06 05:24:27;;;;;;;50.75;19.10;;;;;;;6.06;57.22;100604.52;1716573;83;25806;-60
2022/04/06 05:26:53;;;;;;;65.80;22.07;;;;;;;6.15;57.14;100604.32;1716674;83;28411;-60
2022/04/06 05:29:20;;;;;;;59.18;21.50;;;;;;;6.22;57.13;100604.27;1716577;83;26488;-60
2022/04/06 05:31:47;;;;;;;49.67;20.15;;;;;;;6.31;57.05;100612.08;1716663;83;25798;-60
2022/04/06 05:34:16;;;;;;;65.92;20.97;;;;;;;6.38;56.94;100616.50;1716768;83;26122;-61
2022/04/06 05:40:00;;;;;;;46.77;18.40;;;;;;;6.54;56.73;100603.70;1724446;82;27579;-62
2022/04/06 05:42:27;;;;;;;53.80;17.73;;;;;;;6.64;56.54;100603.85;1681099;84;25731;-60
2022/04/06 05:44:54;;;;;;;42.25;18.15;;;;;;;6.72;56.48;100605.96;1651505;86;25725;-61
2022/04/06 05:47:21;;;;;;;47.45;19.48;;;;;;;6.80;56.49;100611.58;1671998;85;26297;-60
2022/04/06 05:49:48;;;;;;;56.50;20.23;;;;;;;6.89;56.33;100612.72;1668567;85;25804;-60
2022/04/06 05:52:15;;;;;;;58.73;18.73;;;;;;;6.99;56.19;100616.37;1692349;84;27492;-61
2022/04/06 05:54:42;;;;;;;58.45;18.42;;;;;;;7.10;56.11;100623.60;1693339;84;26151;-62
2022/04/06 05:57:09;;;;;;;57.38;19.10;;;;;;;7.20;56.00;100624.61;1679273;85;25694;-60
2022/04/06 05:59:36;;;;;;;47.03;17.32;;;;;;;7.30;55.88;100624.73;1710103;82;26185;-60
2022/04/06 06:02:04;;;;;;;47.65;17.30;;;;;;;7.44;55.71;100624.17;1711442;83;25751;-61
2022/04/06 06:04:33;;;;;;;47.80;20.50;;;;;;;7.58;55.60;100625.73;1711328;83;27548;-61
2022/04/06 06:07:01;;;;;;;30.65;13.88;;;;;;;7.73;55.45;100627.70;1711185;83;25831;-61
2022/04/06 06:09:28;;;;;;;22.55;8.63;;;;;;;7.92;54.88;100619.07;1711424;83;25724;-61
2022/04/06 06:11:55;;;;;;;24.77;9.55;;;;;;;8.14;54.13;100615.02;1711793;83;27131;-61
2022/04/06 06:14:22;;;;;;;28.00;9.10;;;;;;;8.36;52.91;100622.66;1711351;83;25501;-61
2022/04/06 06:16:49;;;;;;;18.00;8.45;;;;;;;8.60;52.67;100618.48;1711390;83;27497;-61
2022/04/06 06:19:17;;;;;;;20.10;8.40;;;;;;;8.85;51.81;100626.29;1711200;83;25484;-61
2022/04/06 06:21:44;;;;;;;27.65;9.45;;;;;;;9.10;51.52;100621.56;1711600;83;25682;-61
2022/04/06 06:24:12;;;;;;;23.00;8.40;;;;;;;9.30;49.81;100625.22;1711339;83;26123;-61
2022/04/06 06:26:42;;;;;;;24.32;9.20;;;;;;;9.48;49.71;100617.39;1711617;83;25908;-61
2022/04/06 06:29:09;;;;;;;25.25;8.35;;;;;;;9.63;48.61;100617.91;1711444;83;27642;-60
2022/04/06 06:31:36;;;;;;;25.45;7.87;;;;;;;9.81;48.90;100620.32;1711315;83;26088;-61
2022/04/06 06:34:03;;;;;;;14.45;6.33;;;;;;;9.94;49.02;100613.87;1711341;83;25518;-61
2022/04/06 06:36:30;;;;;;;27.40;7.08;;;;;;;10.15;47.02;100614.63;1711049;83;28122;-62
2022/04/06 06:38:57;;;;;;;14.53;6.67;;;;;;;10.35;46.59;100614.68;1710793;83;25944;-61
2022/04/06 06:41:24;;;;;;;14.73;7.35;;;;;;;10.54;46.46;100615.73;1711721;83;27604;-61
2022/04/06 06:43:53;;;;;;;16.32;7.12;;;;;;;10.74;45.72;100617.94;1722405;82;25723;-61
2022/04/06 06:46:21;;;;;;;12.80;7.15;;;;;;;10.92;45.69;100622.12;1742770;81;25790;-61
2022/04/06 06:48:51;;;;;;;12.95;5.78;;;;;;;11.07;45.63;100619.34;1742577;82;26256;-61
2022/04/06 06:51:18;;;;;;;23.67;6.35;;;;;;;11.22;44.90;100615.72;1712879;83;25869;-61
2022/04/06 06:53:45;;;;;;;12.80;5.78;;;;;;;11.37;44.88;100612.09;1712393;83;27426;-60
2022/04/06 06:56:14;;;;;;;15.65;5.72;;;;;;;11.54;44.58;100620.40;1712322;82;25502;-61
2022/04/06 06:58:40;;;;;;;15.43;6.47;;;;;;;11.69;44.52;100624.83;1711626;83;25635;-60
2022/04/06 07:01:08;;;;;;;14.13;7.55;;;;;;;11.84;44.09;100619.78;1711191;83;26103;-62
2022/04/06 07:03:35;;;;;;;10.55;6.47;;;;;;;11.99;44.19;100623.73;1711249;83;25666;-61
2022/04/06 07:06:02;;;;;;;10.35;5.92;;;;;;;12.12;43.97;100627.91;1711256;83;27446;-61
2022/04/06 07:08:29;;;;;;;15.45;6.25;;;;;;;12.26;43.40;100623.86;1711418;83;25518;-62
2022/04/06 07:10:57;;;;;;;13.05;5.37;;;;;;;12.49;42.00;100632.39;1711233;83;25636;-61
2022/04/06 07:13:25;;;;;;;11.35;4.22;;;;;;;12.70;41.40;100633.95;1711334;83;26143;-61
2022/04/06 07:15:52;;;;;;;11.28;4.00;;;;;;;12.86;41.20;100642.72;1711256;83;25790;-61
2022/04/06 07:18:21;;;;;;;10.40;3.83;;;;;;;13.01;40.92;100637.12;1711611;83;27677;-61
2022/04/06 07:20:47;;;;;;;7.95;3.42;;;;;;;13.13;41.61;100635.84;1711150;83;25879;-61
2022/04/06 07:23:14;;;;;;;10.48;3.67;;;;;;;13.27;41.26;100631.73;1711227;83;25726;-61
2022/04/06 07:25:42;;;;;;;4.95;3.70;;;;;;;13.40;41.23;100634.57;1711448;83;26269;-61
2022/04/06 07:28:09;;;;;;;4.40;2.85;;;;;;;13.52;40.97;100637.86;1711761;83;25735;-62
2022/04/06 07:30:36;;;;;;;7.40;2.83;;;;;;;13.64;40.18;100636.59;1711370;83;27621;-62
2022/04/06 07:33:03;;;;;;;7.92;2.90;;;;;;;13.75;40.42;100636.33;1711254;83;25886;-60
2022/04/06 07:35:31;;;;;;;3.12;2.15;;;;;;;13.90;39.72;100645.18;1711163;83;25659;-61
2022/04/06 07:37:58;;;;;;;3.65;2.17;;;;;;;14.02;38.60;100649.80;1719767;83;26169;-62
2022/04/06 07:40:25;;;;;;;5.42;2.20;;;;;;;14.14;38.79;100643.59;1728555;83;25751;-62
2022/04/06 07:42:57;;;;;;;4.83;1.95;;;;;;;14.22;38.37;100637.72;1728638;83;27341;-62
2022/04/06 07:45:24;;;;;;;7.10;1.85;;;;;;;14.35;38.53;100644.50;1728036;83;25747;-61
2022/04/06 07:47:53;;;;;;;2.17;1.17;;;;;;;14.48;38.13;100654.86;1729623;81;25466;-61
2022/04/06 07:50:21;;;;;;;29.87;12.98;;;;;;;14.61;36.96;100655.77;1727761;82;26053;-61
2022/04/06 07:52:49;;;;;;;6.83;1.40;;;;;;;14.68;37.17;100652.25;1719375;83;25743;-61
2022/04/06 07:55:16;;;;;;;4.83;1.37;;;;;;;14.77;37.28;100650.41;1718740;83;28327;-61
2022/04/06 07:57:44;;;;;;;4.35;1.55;;;;;;;14.90;36.46;100657.19;1718355;83;26006;-61
2022/04/06 08:00:15;;;;;;;3.67;1.30;;;;;;;14.97;36.28;100644.17;1718413;83;25675;-61
2022/04/06 08:02:48;;;;;;;7.12;1.35;;;;;;;15.01;36.20;100641.48;1718553;83;26017;-61
2022/04/06 08:05:16;;;;;;;5.97;1.52;;;;;;;15.11;35.96;100647.20;1697032;83;25838;-62
2022/04/06 08:07:44;;;;;;;1.80;1.27;;;;;;;15.21;35.27;100649.77;1680362;84;27615;-61
2022/04/06 08:10:16;;;;;;;2.50;1.27;;;;;;;15.25;35.25;100649.75;1661263;85;25477;-62
2022/04/06 08:12:44;;;;;;;2.52;1.10;;;;;;;15.34;35.51;100642.81;1699839;83;25742;-62
2022/04/06 08:15:14;;;;;;;2.37;0.95;;;;;;;15.46;36.01;100627.56;1697751;83;27016;-61
2022/04/06 08:17:46;;;;;;;2.80;1.00;;;;;;;15.58;35.74;100638.37;1697278;84;25909;-61
2022/04/06 08:20:16;;;;;;;2.62;1.05;;;;;;;15.67;35.09;100633.78;1695946;83;27480;-61
2022/04/06 08:22:46;;;;;;;1.52;0.93;;;;;;;15.79;34.95;100638.33;1700605;83;25754;-61
2022/04/06 08:25:17;;;;;;;3.83;1.30;;;;;;;15.81;34.73;100628.98;1692811;83;25855;-61
2022/04/06 08:27:46;;;;;;;1.98;1.10;;;;;;;15.87;34.43;100626.65;1720620;83;26253;-61
2022/04/06 08:30:13;;;;;;;3.83;1.30;;;;;;;15.94;34.32;100633.89;1720403;82;25781;-61
2022/04/06 08:32:40;;;;;;;2.70;1.85;;;;;;;16.06;33.95;100645.20;1721966;83;28261;-61
2022/04/06 08:35:09;;;;;;;2.83;1.60;;;;;;;16.15;33.83;100635.17;1721907;83;25775;-61
2022/04/06 08:37:39;;;;;;;2.47;1.20;;;;;;;16.19;33.82;100630.24;1720164;82;25810;-62
2022/04/06 08:40:10;;;;;;;4.87;1.35;;;;;;;16.27;33.54;100631.03;1719206;83;26288;-61
2022/04/06 08:42:38;;;;;;;4.53;1.50;;;;;;;16.39;33.67;100636.07;1717735;83;25829;-61
2022/04/06 08:45:08;;;;;;;8.20;1.20;;;;;;;16.48;32.50;100640.44;1720237;83;27467;-62
2022/04/06 08:47:36;;;;;;;2.35;1.50;;;;;;;16.55;33.33;100633.26;1717347;83;25797;-61
2022/04/06 08:50:06;;;;;;;4.90;1.20;;;;;;;16.69;32.59;100635.72;1714314;83;25845;-61
2022/04/06 08:52:35;;;;;;;12.00;1.72;;;;;;;16.82;32.83;100624.25;1699112;84;26104;-61
2022/04/06 08:55:03;;;;;;;17.10;2.25;;;;;;;16.98;32.89;100621.97;1698423;84;25656;-61
2022/04/06 08:57:33;;;;;;;3.12;1.62;;;;;;;17.12;33.00;100627.64;1697254;83;27535;-62
2022/04/06 09:00:00;;;;;;;4.97;1.30;;;;;;;17.35;32.20;100626.22;1693411;84;25688;-61
2022/04/06 09:02:27;;;;;;;4.25;1.45;;;;;;;17.46;31.13;100633.94;1693173;84;25709;-62
2022/04/06 09:04:56;;;;;;;2.52;1.25;;;;;;;17.52;30.86;100631.86;1693205;84;25964;-61
2022/04/06 09:07:25;;;;;;;5.28;1.20;;;;;;;17.76;31.64;100619.02;1696885;84;25825;-62
2022/04/06 09:09:53;;;;;;;6.20;1.70;;;;;;;18.02;31.68;100626.42;1698519;83;27561;-62
2022/04/06 09:12:23;;;;;;;6.40;1.65;;;;;;;18.24;30.15;100625.44;1697781;84;25813;-61
2022/04/06 09:15:11;;;;;;;6.17;1.67;;;;;;;18.36;29.71;100637.20;1698142;84;25690;-62
2022/04/06 09:17:47;;;;;;;6.28;1.80;;;;;;;18.48;30.22;100636.19;1697820;84;26161;-62
2022/04/06 09:20:17;;;;;;;5.70;1.75;;;;;;;18.76;29.90;100626.23;1695339;84;25900;-62
2022/04/06 09:22:43;;;;;;;6.92;1.55;;;;;;;19.08;30.15;100617.77;1693333;83;28194;-61
2022/04/06 09:25:10;;;;;;;8.23;2.30;;;;;;;19.50;29.58;100626.03;1693535;83;25768;-62
2022/04/06 09:27:41;;;;;;;5.03;1.72;;;;;;;19.89;29.28;100610.17;1693442;83;25771;-61
2022/04/06 09:30:10;;;;;;;2.55;1.62;;;;;;;20.30;28.13;100632.51;1697031;84;26112;-62
2022/04/06 09:32:37;;;;;;;2.65;1.65;;;;;;;20.54;27.31;100628.89;1699453;84;25799;-62
2022/04/06 09:35:25;;;;;;;4.85;1.45;;;;;;;21.25;27.41;100613.37;1699296;84;27523;-62
2022/04/06 09:38:23;;;;;;;3.60;1.80;;;;;;;22.08;27.97;100618.48;1719057;83;25713;-62
2022/04/06 09:41:14;;;;;;;3.67;1.87;;;;;;;22.56;25.00;100618.09;1699819;83;25767;-62
2022/04/06 09:43:36;;;;;;;11.18;1.90;;;;;;;22.70;24.42;100624.34;1729152;82;27047;-62
2022/04/06 09:49:24;;;;;;;5.58;2.52;;;;;;;23.84;24.19;100615.16;1722940;82;28444;-62
2022/04/06 09:51:51;;;;;;;4.05;1.50;;;;;;;24.47;23.41;100610.91;1683211;83;27047;-61
2022/04/06 09:54:20;;;;;;;3.50;1.50;;;;;;;25.22;22.68;100596.34;1729889;82;25675;-62
2022/04/06 09:56:47;;;;;;;2.83;1.40;;;;;;;25.58;23.57;100599.97;1729562;82;27075;-63
2022/04/06 09:59:15;;;;;;;2.12;1.50;;;;;;;25.68;21.53;100594.70;1729107;82;25798;-62
2022/04/06 10:01:48;;;;;;;4.45;1.80;;;;;;;25.92;21.28;100601.02;1728046;83;27592;-62
2022/04/06 10:04:21;;;;;;;;;;;;;;;26.21;21.54;100609.89;1730767;83;25844;-62
2022/04/06 10:06:50;;;;;;;11.80;1.60;;;;;;;26.08;20.17;100606.84;1728259;83;25741;-62
2022/04/06 10:09:16;;;;;;;3.83;2.42;;;;;;;26.42;21.27;100602.85;1728247;82;25731;-65
2022/04/06 10:11:43;;;;;;;7.53;1.75;;;;;;;27.16;21.72;100598.41;1727980;82;25714;-62
2022/04/06 10:14:11;;;;;;;2.92;1.60;;;;;;;27.84;19.94;100605.21;1729737;82;27653;-62
2022/04/06 10:16:45;;;;;;;3.33;1.60;;;;;;;28.12;19.62;100607.53;1729555;82;25724;-61
2022/04/06 10:19:16;;;;;;;3.00;1.70;;;;;;;28.21;18.55;100614.28;1726831;81;25828;-62
2022/04/06 10:21:55;;;;;;;4.37;1.82;;;;;;;27.85;17.99;100606.89;1728431;83;26986;-62
2022/04/06 10:24:42;;;;;;;2.87;1.67;;;;;;;28.12;19.49;100596.47;1729505;82;26133;-62
2022/04/06 10:27:17;;;;;;;4.87;1.42;;;;;;;28.66;18.73;100587.91;1729744;83;27481;-62
2022/04/06 10:30:09;;;;;;;2.27;1.30;;;;;;;28.87;17.72;100591.17;1729584;83;25784;-62
2022/04/06 10:32:40;;;;;;;4.80;1.30;;;;;;;29.28;18.40;100579.58;1717766;83;25814;-62
2022/04/06 10:35:27;;;;;;;5.90;1.67;;;;;;;30.00;17.35;100575.05;1728054;82;26116;-62
2022/04/06 10:38:05;;;;;;;2.95;1.50;;;;;;;29.93;16.64;100579.45;1717357;83;25831;-62
2022/04/06 10:40:49;;;;;;;3.85;1.50;;;;;;;29.69;17.02;100576.81;1706984;84;27513;-61
2022/04/06 10:43:43;;;;;;;4.83;1.55;;;;;;;29.69;17.17;100574.86;1707494;83;25450;-62
2022/04/06 10:46:17;;;;;;;2.65;1.60;;;;;;;30.07;17.52;100571.45;1704554;84;25766;-64
2022/04/06 10:49:09;;;;;;;1.85;1.22;;;;;;;30.51;16.71;100577.13;1704798;84;26165;-68
2022/04/06 10:51:41;;;;;;;4.03;1.30;;;;;;;30.33;14.81;100575.69;1708360;84;25516;-63
2022/04/06 10:54:19;;;;;;;6.47;1.07;;;;;;;30.02;16.17;100567.83;1708485;84;27494;-63
2022/04/06 10:56:53;;;;;;;3.15;1.45;;;;;;;29.82;15.73;100561.06;1707646;84;25845;-64
2022/04/06 10:59:28;;;;;;;5.22;1.20;;;;;;;30.33;15.96;100555.45;1730909;82;25852;-63
2022/04/06 11:02:19;;;;;;;5.33;2.52;;;;;;;30.54;16.15;100557.16;1743554;81;26068;-64
2022/04/06 11:04:49;;;;;;;5.80;1.25;;;;;;;30.93;16.38;100555.77;1735465;82;27261;-64
2022/04/06 11:10:06;;;;;;;6.33;1.62;;;;;;;31.46;15.99;100544.91;1713981;82;28163;-63
2022/04/06 11:10:08;;;;;;;1.90;1.20;;;;;;;31.54;15.34;100548.49;1704856;83;27228;-64
2022/04/06 11:12:35;;;;;;;3.92;1.57;;;;;;;31.39;14.91;100547.98;1706645;83;25796;-63
2022/04/06 11:15:07;;;;;;;4.65;1.40;;;;;;;31.30;14.97;100547.70;1706744;83;26247;-63
2022/04/06 11:17:41;;;;;;;3.98;1.75;;;;;;;31.22;15.02;100547.73;1707676;84;30136;-63
2022/04/06 11:20:27;;;;;;;2.58;1.22;;;;;;;31.38;15.01;100543.53;1710464;83;27372;-64
2022/04/06 11:22:57;;;;;;;6.60;2.15;;;;;;;31.89;14.74;100531.42;1712689;83;25741;-64
2022/04/06 11:25:29;;;;;;;1.70;1.00;;;;;;;32.05;14.78;100538.28;1712882;83;25723;-64
2022/04/06 11:28:13;;;;;;;2.22;1.20;;;;;;;31.96;14.82;100536.67;1712585;83;27003;-64
2022/04/06 11:30:44;;;;;;;2.62;1.20;;;;;;;32.47;15.29;100534.14;1707953;83;25656;-64
2022/04/06 11:33:11;;;;;;;8.23;1.60;;;;;;;32.85;14.04;100523.86;1711355;83;27403;-64
2022/04/06 11:35:40;;;;;;;4.08;1.20;;;;;;;33.03;13.65;100520.34;1711110;83;25877;-64
2022/04/06 11:38:08;;;;;;;2.90;1.40;;;;;;;33.17;14.04;100509.88;1718383;82;25475;-64
2022/04/06 11:40:40;;;;;;;26.27;2.67;;;;;;;33.02;14.29;100502.50;1728078;83;26941;-64